sensor_id;sensor_type;location;lat;lon;timestamp;P1;durP1;ratioP1;P2;durP2;ratioP2
11054;SDS011;5580;50.106;8.702;2023-03-01T00:01:07;20.40;;;12.93;;
11054;SDS011;5580;50.106;8.702;2023-03-01T00:03:34;19.93;;;12.47;;
11054;SDS011;5580;50.106;8.702;2023-03-01T00:06:00;20.67;;;13.00;;
11054;SDS011;5580;50.106;8.702;2023-03-01T00:08:26;20.10;;;12.90;;
11054;SDS011;5580;50.106;8.702;2023-03-01T00:11:10;21.57;;;13.23;;
11054;SDS011;5580;50.106;8.702;2023-03-01T00:14:08;22.50;;;13.87;;
11054;SDS011;5580;50.106;8.702;2023-03-01T00:16:38;21.37;;;13.30;;
11054;SDS011;5580;50.106;8.702;2023-03-01T00:19:06;22.90;;;13.60;;
11054;SDS011;5580;50.106;8.702;2023-03-01T00:21:32;21.73;;;13.27;;
11054;SDS011;5580;50.106;8.702;2023-03-01T00:24:00;20.70;;;13.13;;
11054;SDS011;5580;50.106;8.702;2023-03-01T00:26:26;20.57;;;13.67;;
11054;SDS011;5580;50.106;8.702;2023-03-01T00:28:52;23.97;;;14.23;;
11054;SDS011;5580;50.106;8.702;2023-03-01T00:31:24;19.83;;;13.43;;
11054;SDS011;5580;50.106;8.702;2023-03-01T00:33:53;21.37;;;13.77;;
11054;SDS011;5580;50.106;8.702;2023-03-01T00:36:22;21.07;;;13.63;;
11054;SDS011;5580;50.106;8.702;2023-03-01T00:38:49;22.70;;;13.47;;
11054;SDS011;5580;50.106;8.702;2023-03-01T00:41:16;22.60;;;14.03;;
11054;SDS011;5580;50.106;8.702;2023-03-01T00:43:43;22.03;;;13.60;;
11054;SDS011;5580;50.106;8.702;2023-03-01T00:46:11;21.40;;;13.27;;
11054;SDS011;5580;50.106;8.702;2023-03-01T00:48:38;20.93;;;12.77;;
11054;SDS011;5580;50.106;8.702;2023-03-01T00:51:05;23.37;;;13.50;;
11054;SDS011;5580;50.106;8.702;2023-03-01T00:53:31;21.70;;;13.37;;
11054;SDS011;5580;50.106;8.702;2023-03-01T00:55:57;23.40;;;13.63;;
11054;SDS011;5580;50.106;8.702;2023-03-01T00:58:23;19.93;;;12.40;;
11054;SDS011;5580;50.106;8.702;2023-03-01T01:00:49;21.10;;;13.07;;
11054;SDS011;5580;50.106;8.702;2023-03-01T01:03:15;20.10;;;12.97;;
11054;SDS011;5580;50.106;8.702;2023-03-01T01:05:40;23.47;;;13.83;;
11054;SDS011;5580;50.106;8.702;2023-03-01T01:08:06;24.33;;;13.73;;
11054;SDS011;5580;50.106;8.702;2023-03-01T01:10:33;22.83;;;13.43;;
11054;SDS011;5580;50.106;8.702;2023-03-01T01:12:59;20.77;;;13.27;;
11054;SDS011;5580;50.106;8.702;2023-03-01T01:15:25;22.60;;;13.87;;
11054;SDS011;5580;50.106;8.702;2023-03-01T01:17:51;21.50;;;13.93;;
11054;SDS011;5580;50.106;8.702;2023-03-01T01:20:17;21.37;;;13.83;;
11054;SDS011;5580;50.106;8.702;2023-03-01T01:22:43;21.13;;;13.03;;
11054;SDS011;5580;50.106;8.702;2023-03-01T01:25:08;22.37;;;13.40;;
11054;SDS011;5580;50.106;8.702;2023-03-01T01:27:35;21.07;;;13.33;;
11054;SDS011;5580;50.106;8.702;2023-03-01T01:30:02;20.20;;;13.27;;
11054;SDS011;5580;50.106;8.702;2023-03-01T01:32:28;22.67;;;13.87;;
11054;SDS011;5580;50.106;8.702;2023-03-01T01:34:54;22.63;;;14.13;;
11054;SDS011;5580;50.106;8.702;2023-03-01T01:37:20;23.07;;;14.27;;
11054;SDS011;5580;50.106;8.702;2023-03-01T01:39:46;22.80;;;13.70;;
11054;SDS011;5580;50.106;8.702;2023-03-01T01:42:14;22.80;;;13.73;;
11054;SDS011;5580;50.106;8.702;2023-03-01T01:44:42;21.57;;;13.83;;
11054;SDS011;5580;50.106;8.702;2023-03-01T01:47:18;20.87;;;13.77;;
11054;SDS011;5580;50.106;8.702;2023-03-01T01:49:50;21.20;;;13.87;;
11054;SDS011;5580;50.106;8.702;2023-03-01T01:52:54;21.60;;;13.90;;
11054;SDS011;5580;50.106;8.702;2023-03-01T01:55:16;22.17;;;13.23;;
11054;SDS011;5580;50.106;8.702;2023-03-01T01:57:47;21.80;;;13.93;;
11054;SDS011;5580;50.106;8.702;2023-03-01T02:00:27;22.10;;;14.00;;
11054;SDS011;5580;50.106;8.702;2023-03-01T02:02:59;23.10;;;13.97;;
11054;SDS011;5580;50.106;8.702;2023-03-01T02:05:42;23.00;;;13.73;;
11054;SDS011;5580;50.106;8.702;2023-03-01T02:08:14;25.00;;;14.80;;
11054;SDS011;5580;50.106;8.702;2023-03-01T02:10:43;22.30;;;13.90;;
11054;SDS011;5580;50.106;8.702;2023-03-01T02:13:11;23.50;;;14.67;;
11054;SDS011;5580;50.106;8.702;2023-03-01T02:15:37;23.83;;;14.70;;
11054;SDS011;5580;50.106;8.702;2023-03-01T02:18:04;21.80;;;13.83;;
11054;SDS011;5580;50.106;8.702;2023-03-01T02:23:25;22.60;;;13.90;;
11054;SDS011;5580;50.106;8.702;2023-03-01T02:26:01;22.53;;;13.90;;
11054;SDS011;5580;50.106;8.702;2023-03-01T02:28:38;21.93;;;14.23;;
11054;SDS011;5580;50.106;8.702;2023-03-01T02:31:08;24.27;;;14.27;;
11054;SDS011;5580;50.106;8.702;2023-03-01T02:33:54;23.17;;;13.73;;
11054;SDS011;5580;50.106;8.702;2023-03-01T02:36:29;23.27;;;14.40;;
11054;SDS011;5580;50.106;8.702;2023-03-01T02:38:59;22.40;;;14.57;;
11054;SDS011;5580;50.106;8.702;2023-03-01T02:41:28;25.50;;;14.77;;
11054;SDS011;5580;50.106;8.702;2023-03-01T02:43:57;23.87;;;14.47;;
11054;SDS011;5580;50.106;8.702;2023-03-01T02:46:24;22.97;;;14.33;;
11054;SDS011;5580;50.106;8.702;2023-03-01T02:48:52;25.53;;;14.40;;
11054;SDS011;5580;50.106;8.702;2023-03-01T02:56:54;24.33;;;14.60;;
11054;SDS011;5580;50.106;8.702;2023-03-01T02:59:21;23.70;;;15.03;;
11054;SDS011;5580;50.106;8.702;2023-03-01T03:01:49;25.40;;;14.73;;
11054;SDS011;5580;50.106;8.702;2023-03-01T03:04:16;23.07;;;14.27;;
11054;SDS011;5580;50.106;8.702;2023-03-01T03:06:43;25.57;;;14.80;;
11054;SDS011;5580;50.106;8.702;2023-03-01T03:09:10;25.83;;;15.53;;
11054;SDS011;5580;50.106;8.702;2023-03-01T03:11:36;23.50;;;15.07;;
11054;SDS011;5580;50.106;8.702;2023-03-01T03:14:02;24.80;;;15.20;;
11054;SDS011;5580;50.106;8.702;2023-03-01T03:16:28;24.27;;;15.00;;
11054;SDS011;5580;50.106;8.702;2023-03-01T03:18:54;24.07;;;14.90;;
11054;SDS011;5580;50.106;8.702;2023-03-01T03:21:29;24.83;;;15.27;;
11054;SDS011;5580;50.106;8.702;2023-03-01T03:23:58;25.20;;;15.60;;
11054;SDS011;5580;50.106;8.702;2023-03-01T03:26:24;24.20;;;14.97;;
11054;SDS011;5580;50.106;8.702;2023-03-01T03:28:50;22.73;;;14.37;;
11054;SDS011;5580;50.106;8.702;2023-03-01T03:31:16;25.97;;;15.93;;
11054;SDS011;5580;50.106;8.702;2023-03-01T03:33:41;26.37;;;16.30;;
11054;SDS011;5580;50.106;8.702;2023-03-01T03:36:07;25.77;;;16.27;;
11054;SDS011;5580;50.106;8.702;2023-03-01T03:38:38;27.40;;;15.23;;
11054;SDS011;5580;50.106;8.702;2023-03-01T03:41:06;24.50;;;15.90;;
11054;SDS011;5580;50.106;8.702;2023-03-01T03:43:33;24.13;;;15.07;;
11054;SDS011;5580;50.106;8.702;2023-03-01T03:46:00;25.80;;;16.30;;
11054;SDS011;5580;50.106;8.702;2023-03-01T03:48:30;24.63;;;14.60;;
11054;SDS011;5580;50.106;8.702;2023-03-01T03:50:57;26.50;;;15.43;;
11054;SDS011;5580;50.106;8.702;2023-03-01T03:53:24;24.60;;;14.90;;
11054;SDS011;5580;50.106;8.702;2023-03-01T03:55:51;24.13;;;15.70;;
11054;SDS011;5580;50.106;8.702;2023-03-01T03:58:18;24.83;;;16.03;;
11054;SDS011;5580;50.106;8.702;2023-03-01T04:00:45;23.47;;;14.70;;
11054;SDS011;5580;50.106;8.702;2023-03-01T04:03:13;24.50;;;15.30;;
11054;SDS011;5580;50.106;8.702;2023-03-01T04:05:41;23.30;;;14.67;;
11054;SDS011;5580;50.106;8.702;2023-03-01T04:08:07;24.60;;;15.33;;
11054;SDS011;5580;50.106;8.702;2023-03-01T04:10:35;26.17;;;16.33;;
11054;SDS011;5580;50.106;8.702;2023-03-01T04:13:02;25.23;;;15.37;;
11054;SDS011;5580;50.106;8.702;2023-03-01T04:15:30;26.87;;;16.23;;
11054;SDS011;5580;50.106;8.702;2023-03-01T04:17:57;24.50;;;15.70;;
11054;SDS011;5580;50.106;8.702;2023-03-01T04:20:24;25.27;;;15.87;;
11054;SDS011;5580;50.106;8.702;2023-03-01T04:22:57;27.40;;;16.17;;
11054;SDS011;5580;50.106;8.702;2023-03-01T04:25:25;26.47;;;16.37;;
11054;SDS011;5580;50.106;8.702;2023-03-01T04:27:51;24.43;;;15.80;;
11054;SDS011;5580;50.106;8.702;2023-03-01T04:30:16;27.00;;;16.40;;
11054;SDS011;5580;50.106;8.702;2023-03-01T04:32:42;28.03;;;16.43;;
11054;SDS011;5580;50.106;8.702;2023-03-01T04:35:08;26.20;;;15.90;;
11054;SDS011;5580;50.106;8.702;2023-03-01T04:37:34;27.47;;;16.33;;
11054;SDS011;5580;50.106;8.702;2023-03-01T04:40:00;27.27;;;16.53;;
11054;SDS011;5580;50.106;8.702;2023-03-01T04:42:32;26.60;;;15.63;;
11054;SDS011;5580;50.106;8.702;2023-03-01T04:44:58;26.10;;;15.73;;
11054;SDS011;5580;50.106;8.702;2023-03-01T04:47:23;27.37;;;16.50;;
11054;SDS011;5580;50.106;8.702;2023-03-01T04:49:49;25.70;;;15.87;;
11054;SDS011;5580;50.106;8.702;2023-03-01T04:52:15;25.63;;;16.60;;
11054;SDS011;5580;50.106;8.702;2023-03-01T04:54:40;26.83;;;16.67;;
11054;SDS011;5580;50.106;8.702;2023-03-01T04:57:06;28.17;;;17.70;;
11054;SDS011;5580;50.106;8.702;2023-03-01T04:59:32;24.80;;;15.90;;
11054;SDS011;5580;50.106;8.702;2023-03-01T05:01:58;27.20;;;16.07;;
11054;SDS011;5580;50.106;8.702;2023-03-01T05:04:25;25.07;;;15.73;;
11054;SDS011;5580;50.106;8.702;2023-03-01T05:06:51;26.60;;;16.67;;
11054;SDS011;5580;50.106;8.702;2023-03-01T05:09:18;28.83;;;16.97;;
11054;SDS011;5580;50.106;8.702;2023-03-01T05:11:44;27.90;;;16.90;;
11054;SDS011;5580;50.106;8.702;2023-03-01T05:14:10;27.13;;;17.37;;
11054;SDS011;5580;50.106;8.702;2023-03-01T05:16:35;28.13;;;16.67;;
11054;SDS011;5580;50.106;8.702;2023-03-01T05:19:02;27.20;;;16.37;;
11054;SDS011;5580;50.106;8.702;2023-03-01T05:21:36;28.27;;;16.90;;
11054;SDS011;5580;50.106;8.702;2023-03-01T05:24:22;26.43;;;16.07;;
11054;SDS011;5580;50.106;8.702;2023-03-01T05:26:48;28.97;;;16.80;;
11054;SDS011;5580;50.106;8.702;2023-03-01T05:29:16;28.60;;;16.20;;
11054;SDS011;5580;50.106;8.702;2023-03-01T05:31:44;28.40;;;17.10;;
11054;SDS011;5580;50.106;8.702;2023-03-01T05:34:09;27.27;;;16.57;;
11054;SDS011;5580;50.106;8.702;2023-03-01T05:36:37;26.57;;;15.80;;
11054;SDS011;5580;50.106;8.702;2023-03-01T05:39:03;30.60;;;16.83;;
11054;SDS011;5580;50.106;8.702;2023-03-01T05:41:28;27.33;;;16.63;;
11054;SDS011;5580;50.106;8.702;2023-03-01T05:43:54;28.80;;;16.23;;
11054;SDS011;5580;50.106;8.702;2023-03-01T05:46:19;28.30;;;16.27;;
11054;SDS011;5580;50.106;8.702;2023-03-01T05:48:45;26.63;;;16.20;;
11054;SDS011;5580;50.106;8.702;2023-03-01T05:51:12;30.93;;;16.57;;
11054;SDS011;5580;50.106;8.702;2023-03-01T05:53:37;27.80;;;16.53;;
11054;SDS011;5580;50.106;8.702;2023-03-01T05:56:03;27.00;;;16.63;;
11054;SDS011;5580;50.106;8.702;2023-03-01T05:58:29;27.03;;;16.07;;
11054;SDS011;5580;50.106;8.702;2023-03-01T06:00:55;27.97;;;17.13;;
11054;SDS011;5580;50.106;8.702;2023-03-01T06:03:21;29.47;;;17.10;;
11054;SDS011;5580;50.106;8.702;2023-03-01T06:05:46;26.67;;;15.80;;
11054;SDS011;5580;50.106;8.702;2023-03-01T06:08:12;32.40;;;16.90;;
11054;SDS011;5580;50.106;8.702;2023-03-01T06:10:38;26.33;;;16.23;;
11054;SDS011;5580;50.106;8.702;2023-03-01T06:13:04;27.27;;;16.53;;
11054;SDS011;5580;50.106;8.702;2023-03-01T06:15:29;25.90;;;16.10;;
11054;SDS011;5580;50.106;8.702;2023-03-01T06:17:55;28.57;;;16.43;;
11054;SDS011;5580;50.106;8.702;2023-03-01T06:20:23;32.43;;;17.37;;
11054;SDS011;5580;50.106;8.702;2023-03-01T06:22:50;27.27;;;16.53;;
11054;SDS011;5580;50.106;8.702;2023-03-01T06:25:17;27.43;;;16.87;;
11054;SDS011;5580;50.106;8.702;2023-03-01T06:27:45;29.27;;;17.00;;
11054;SDS011;5580;50.106;8.702;2023-03-01T06:30:11;26.37;;;16.00;;
11054;SDS011;5580;50.106;8.702;2023-03-01T06:32:39;28.90;;;17.10;;
11054;SDS011;5580;50.106;8.702;2023-03-01T06:35:08;29.70;;;17.03;;
11054;SDS011;5580;50.106;8.702;2023-03-01T06:37:35;29.77;;;17.27;;
11054;SDS011;5580;50.106;8.702;2023-03-01T06:40:01;26.97;;;16.50;;
11054;SDS011;5580;50.106;8.702;2023-03-01T06:42:35;28.27;;;16.33;;
11054;SDS011;5580;50.106;8.702;2023-03-01T06:45:02;28.23;;;16.70;;
11054;SDS011;5580;50.106;8.702;2023-03-01T06:47:29;27.77;;;16.50;;
11054;SDS011;5580;50.106;8.702;2023-03-01T06:49:54;26.80;;;16.27;;
11054;SDS011;5580;50.106;8.702;2023-03-01T06:52:20;26.20;;;16.37;;
11054;SDS011;5580;50.106;8.702;2023-03-01T06:54:46;29.97;;;16.43;;
11054;SDS011;5580;50.106;8.702;2023-03-01T06:57:11;28.17;;;16.00;;
11054;SDS011;5580;50.106;8.702;2023-03-01T06:59:37;31.67;;;16.50;;
11054;SDS011;5580;50.106;8.702;2023-03-01T07:02:02;24.23;;;15.43;;
11054;SDS011;5580;50.106;8.702;2023-03-01T07:04:28;28.37;;;16.60;;
11054;SDS011;5580;50.106;8.702;2023-03-01T07:06:55;30.07;;;16.47;;
11054;SDS011;5580;50.106;8.702;2023-03-01T07:09:23;27.23;;;16.20;;
11054;SDS011;5580;50.106;8.702;2023-03-01T07:11:49;26.60;;;15.70;;
11054;SDS011;5580;50.106;8.702;2023-03-01T07:14:15;27.97;;;16.20;;
11054;SDS011;5580;50.106;8.702;2023-03-01T07:16:41;28.67;;;15.87;;
11054;SDS011;5580;50.106;8.702;2023-03-01T07:19:07;26.97;;;15.70;;
11054;SDS011;5580;50.106;8.702;2023-03-01T07:21:32;27.70;;;16.03;;
11054;SDS011;5580;50.106;8.702;2023-03-01T07:23:58;29.23;;;17.00;;
11054;SDS011;5580;50.106;8.702;2023-03-01T07:26:23;27.60;;;16.27;;
11054;SDS011;5580;50.106;8.702;2023-03-01T07:28:49;28.00;;;16.73;;
11054;SDS011;5580;50.106;8.702;2023-03-01T07:31:14;29.27;;;16.97;;
11054;SDS011;5580;50.106;8.702;2023-03-01T07:33:40;26.97;;;16.67;;
11054;SDS011;5580;50.106;8.702;2023-03-01T07:36:06;28.00;;;16.63;;
11054;SDS011;5580;50.106;8.702;2023-03-01T07:38:32;24.97;;;16.30;;
11054;SDS011;5580;50.106;8.702;2023-03-01T07:40:58;25.33;;;15.97;;
11054;SDS011;5580;50.106;8.702;2023-03-01T07:43:25;27.50;;;16.30;;
11054;SDS011;5580;50.106;8.702;2023-03-01T07:45:51;26.17;;;17.00;;
11054;SDS011;5580;50.106;8.702;2023-03-01T07:48:17;29.47;;;16.40;;
11054;SDS011;5580;50.106;8.702;2023-03-01T07:50:43;28.93;;;16.60;;
11054;SDS011;5580;50.106;8.702;2023-03-01T07:53:09;28.87;;;17.13;;
11054;SDS011;5580;50.106;8.702;2023-03-01T07:55:35;27.77;;;16.10;;
11054;SDS011;5580;50.106;8.702;2023-03-01T07:58:01;27.67;;;16.67;;
11054;SDS011;5580;50.106;8.702;2023-03-01T08:00:27;27.43;;;16.57;;
11054;SDS011;5580;50.106;8.702;2023-03-01T08:02:52;27.20;;;16.43;;
11054;SDS011;5580;50.106;8.702;2023-03-01T08:05:18;29.03;;;16.97;;
11054;SDS011;5580;50.106;8.702;2023-03-01T08:07:44;29.03;;;16.70;;
11054;SDS011;5580;50.106;8.702;2023-03-01T08:10:09;28.17;;;17.43;;
11054;SDS011;5580;50.106;8.702;2023-03-01T08:12:35;28.43;;;17.10;;
11054;SDS011;5580;50.106;8.702;2023-03-01T08:15:01;25.87;;;15.87;;
11054;SDS011;5580;50.106;8.702;2023-03-01T08:17:27;25.03;;;15.67;;
11054;SDS011;5580;50.106;8.702;2023-03-01T08:19:52;29.33;;;16.63;;
11054;SDS011;5580;50.106;8.702;2023-03-01T08:22:18;26.37;;;15.83;;
11054;SDS011;5580;50.106;8.702;2023-03-01T08:24:43;27.90;;;15.80;;
11054;SDS011;5580;50.106;8.702;2023-03-01T08:27:09;29.57;;;17.73;;
11054;SDS011;5580;50.106;8.702;2023-03-01T08:29:37;27.87;;;16.27;;
11054;SDS011;5580;50.106;8.702;2023-03-01T08:32:02;31.13;;;17.20;;
11054;SDS011;5580;50.106;8.702;2023-03-01T08:34:28;29.97;;;16.67;;
11054;SDS011;5580;50.106;8.702;2023-03-01T08:36:54;27.20;;;17.03;;
11054;SDS011;5580;50.106;8.702;2023-03-01T08:39:20;28.30;;;17.17;;
11054;SDS011;5580;50.106;8.702;2023-03-01T08:41:46;31.07;;;17.70;;
11054;SDS011;5580;50.106;8.702;2023-03-01T08:44:12;28.07;;;16.83;;
11054;SDS011;5580;50.106;8.702;2023-03-01T08:46:41;29.97;;;16.87;;
11054;SDS011;5580;50.106;8.702;2023-03-01T08:49:08;28.53;;;17.40;;
11054;SDS011;5580;50.106;8.702;2023-03-01T08:51:36;31.73;;;17.57;;
11054;SDS011;5580;50.106;8.702;2023-03-01T08:54:06;31.17;;;17.70;;
11054;SDS011;5580;50.106;8.702;2023-03-01T08:56:35;31.03;;;17.50;;
11054;SDS011;5580;50.106;8.702;2023-03-01T08:59:01;27.70;;;17.00;;
11054;SDS011;5580;50.106;8.702;2023-03-01T09:01:27;30.17;;;16.43;;
11054;SDS011;5580;50.106;8.702;2023-03-01T09:03:53;28.20;;;16.27;;
11054;SDS011;5580;50.106;8.702;2023-03-01T09:06:18;31.40;;;16.53;;
11054;SDS011;5580;50.106;8.702;2023-03-01T09:08:45;26.87;;;15.57;;
11054;SDS011;5580;50.106;8.702;2023-03-01T09:11:13;31.43;;;16.77;;
11054;SDS011;5580;50.106;8.702;2023-03-01T09:13:42;28.07;;;16.83;;
11054;SDS011;5580;50.106;8.702;2023-03-01T09:16:08;27.03;;;17.13;;
11054;SDS011;5580;50.106;8.702;2023-03-01T09:18:35;26.60;;;17.03;;
11054;SDS011;5580;50.106;8.702;2023-03-01T09:21:05;27.80;;;16.07;;
11054;SDS011;5580;50.106;8.702;2023-03-01T09:23:33;27.93;;;17.67;;
11054;SDS011;5580;50.106;8.702;2023-03-01T09:26:01;26.67;;;16.37;;
11054;SDS011;5580;50.106;8.702;2023-03-01T09:28:28;26.70;;;17.03;;
11054;SDS011;5580;50.106;8.702;2023-03-01T09:30:53;29.07;;;17.60;;
11054;SDS011;5580;50.106;8.702;2023-03-01T09:33:22;26.67;;;16.70;;
11054;SDS011;5580;50.106;8.702;2023-03-01T09:35:47;27.53;;;16.77;;
11054;SDS011;5580;50.106;8.702;2023-03-01T09:38:13;28.10;;;17.33;;
11054;SDS011;5580;50.106;8.702;2023-03-01T09:40:42;25.87;;;16.23;;
11054;SDS011;5580;50.106;8.702;2023-03-01T09:43:25;29.43;;;17.27;;
11054;SDS011;5580;50.106;8.702;2023-03-01T09:46:05;27.03;;;16.57;;
11054;SDS011;5580;50.106;8.702;2023-03-01T09:48:37;27.30;;;17.20;;
11054;SDS011;5580;50.106;8.702;2023-03-01T09:51:08;30.00;;;17.93;;
11054;SDS011;5580;50.106;8.702;2023-03-01T09:53:42;31.77;;;17.50;;
11054;SDS011;5580;50.106;8.702;2023-03-01T10:01:32;28.93;;;17.57;;
11054;SDS011;5580;50.106;8.702;2023-03-01T10:06:34;29.10;;;17.43;;
11054;SDS011;5580;50.106;8.702;2023-03-01T10:09:01;26.53;;;17.27;;
11054;SDS011;5580;50.106;8.702;2023-03-01T10:11:36;26.83;;;17.23;;
11054;SDS011;5580;50.106;8.702;2023-03-01T10:16:48;26.87;;;16.77;;
11054;SDS011;5580;50.106;8.702;2023-03-01T10:19:23;27.77;;;16.93;;
11054;SDS011;5580;50.106;8.702;2023-03-01T10:21:56;26.57;;;17.03;;
11054;SDS011;5580;50.106;8.702;2023-03-01T10:24:26;26.30;;;16.63;;
11054;SDS011;5580;50.106;8.702;2023-03-01T10:26:57;27.33;;;17.13;;
11054;SDS011;5580;50.106;8.702;2023-03-01T10:32:27;27.77;;;17.27;;
11054;SDS011;5580;50.106;8.702;2023-03-01T10:34:54;27.33;;;16.77;;
11054;SDS011;5580;50.106;8.702;2023-03-01T10:37:20;26.17;;;16.33;;
11054;SDS011;5580;50.106;8.702;2023-03-01T10:40:01;27.00;;;17.20;;
11054;SDS011;5580;50.106;8.702;2023-03-01T10:42:54;26.73;;;16.57;;
11054;SDS011;5580;50.106;8.702;2023-03-01T10:48:08;27.57;;;16.93;;
11054;SDS011;5580;50.106;8.702;2023-03-01T10:50:41;26.33;;;15.67;;
11054;SDS011;5580;50.106;8.702;2023-03-01T10:58:31;26.10;;;16.30;;
11054;SDS011;5580;50.106;8.702;2023-03-01T11:00:59;29.53;;;16.57;;
11054;SDS011;5580;50.106;8.702;2023-03-01T11:03:31;26.83;;;16.07;;
11054;SDS011;5580;50.106;8.702;2023-03-01T11:08:32;27.97;;;16.43;;
11054;SDS011;5580;50.106;8.702;2023-03-01T11:11:06;25.90;;;16.00;;
11054;SDS011;5580;50.106;8.702;2023-03-01T11:14:38;24.67;;;15.87;;
11054;SDS011;5580;50.106;8.702;2023-03-01T11:16:41;23.90;;;15.20;;
11054;SDS011;5580;50.106;8.702;2023-03-01T11:24:40;22.67;;;14.67;;
11054;SDS011;5580;50.106;8.702;2023-03-01T11:27:13;24.40;;;14.90;;
11054;SDS011;5580;50.106;8.702;2023-03-01T11:29:55;22.73;;;14.07;;
11054;SDS011;5580;50.106;8.702;2023-03-01T11:32:25;21.40;;;14.20;;
11054;SDS011;5580;50.106;8.702;2023-03-01T11:40:32;25.47;;;14.37;;
11054;SDS011;5580;50.106;8.702;2023-03-01T11:51:21;23.63;;;13.77;;
11054;SDS011;5580;50.106;8.702;2023-03-01T11:56:46;21.03;;;13.67;;
11054;SDS011;5580;50.106;8.702;2023-03-01T12:04:52;28.70;;;13.63;;
11054;SDS011;5580;50.106;8.702;2023-03-01T12:16:30;20.17;;;12.20;;
11054;SDS011;5580;50.106;8.702;2023-03-01T12:21:52;23.13;;;12.27;;
11054;SDS011;5580;50.106;8.702;2023-03-01T12:24:51;20.20;;;12.13;;
11054;SDS011;5580;50.106;8.702;2023-03-01T12:30:04;20.10;;;12.87;;
11054;SDS011;5580;50.106;8.702;2023-03-01T12:35:52;21.93;;;12.20;;
11054;SDS011;5580;50.106;8.702;2023-03-01T12:38:41;17.87;;;11.77;;
11054;SDS011;5580;50.106;8.702;2023-03-01T12:41:21;21.20;;;12.33;;
11054;SDS011;5580;50.106;8.702;2023-03-01T12:44:11;21.10;;;12.80;;
11054;SDS011;5580;50.106;8.702;2023-03-01T12:50:03;21.40;;;12.70;;
11054;SDS011;5580;50.106;8.702;2023-03-01T12:55:02;20.77;;;13.13;;
11054;SDS011;5580;50.106;8.702;2023-03-01T12:57:43;19.17;;;11.33;;
11054;SDS011;5580;50.106;8.702;2023-03-01T13:03:31;21.83;;;12.80;;
11054;SDS011;5580;50.106;8.702;2023-03-01T13:06:35;19.67;;;12.03;;
11054;SDS011;5580;50.106;8.702;2023-03-01T13:09:28;20.30;;;11.80;;
11054;SDS011;5580;50.106;8.702;2023-03-01T13:11:55;19.33;;;10.67;;
11054;SDS011;5580;50.106;8.702;2023-03-01T13:16:50;17.40;;;10.93;;
11054;SDS011;5580;50.106;8.702;2023-03-01T13:19:18;17.90;;;11.10;;
11054;SDS011;5580;50.106;8.702;2023-03-01T13:21:46;17.33;;;10.97;;
11054;SDS011;5580;50.106;8.702;2023-03-01T13:29:48;17.60;;;10.70;;
11054;SDS011;5580;50.106;8.702;2023-03-01T13:37:43;20.30;;;12.03;;
11054;SDS011;5580;50.106;8.702;2023-03-01T13:42:43;19.53;;;12.47;;
11054;SDS011;5580;50.106;8.702;2023-03-01T13:45:15;18.67;;;12.20;;
11054;SDS011;5580;50.106;8.702;2023-03-01T13:47:44;22.70;;;12.63;;
11054;SDS011;5580;50.106;8.702;2023-03-01T13:50:21;19.70;;;12.63;;
11054;SDS011;5580;50.106;8.702;2023-03-01T13:55:22;19.23;;;12.03;;
11054;SDS011;5580;50.106;8.702;2023-03-01T13:57:56;22.03;;;12.70;;
11054;SDS011;5580;50.106;8.702;2023-03-01T14:00:44;18.87;;;12.17;;
11054;SDS011;5580;50.106;8.702;2023-03-01T14:05:40;20.47;;;12.03;;
11054;SDS011;5580;50.106;8.702;2023-03-01T14:08:21;21.60;;;12.97;;
11054;SDS011;5580;50.106;8.702;2023-03-01T14:11:01;21.47;;;12.60;;
11054;SDS011;5580;50.106;8.702;2023-03-01T14:13:58;22.23;;;12.53;;
11054;SDS011;5580;50.106;8.702;2023-03-01T14:16:54;20.00;;;12.57;;
11054;SDS011;5580;50.106;8.702;2023-03-01T14:19:26;21.07;;;13.00;;
11054;SDS011;5580;50.106;8.702;2023-03-01T14:22:00;22.33;;;13.23;;
11054;SDS011;5580;50.106;8.702;2023-03-01T14:24:47;19.17;;;11.93;;
11054;SDS011;5580;50.106;8.702;2023-03-01T14:27:21;18.23;;;12.43;;
11054;SDS011;5580;50.106;8.702;2023-03-01T14:29:55;19.30;;;12.33;;
11054;SDS011;5580;50.106;8.702;2023-03-01T14:32:27;19.10;;;11.83;;
11054;SDS011;5580;50.106;8.702;2023-03-01T14:34:54;20.60;;;12.53;;
11054;SDS011;5580;50.106;8.702;2023-03-01T14:37:25;21.43;;;12.83;;
11054;SDS011;5580;50.106;8.702;2023-03-01T14:39:57;19.80;;;12.13;;
11054;SDS011;5580;50.106;8.702;2023-03-01T14:42:25;22.67;;;12.07;;
11054;SDS011;5580;50.106;8.702;2023-03-01T14:44:54;17.10;;;11.60;;
11054;SDS011;5580;50.106;8.702;2023-03-01T14:47:28;20.93;;;12.60;;
11054;SDS011;5580;50.106;8.702;2023-03-01T14:49:58;18.40;;;12.40;;
11054;SDS011;5580;50.106;8.702;2023-03-01T14:52:36;19.03;;;12.17;;
11054;SDS011;5580;50.106;8.702;2023-03-01T14:55:05;18.13;;;11.90;;
11054;SDS011;5580;50.106;8.702;2023-03-01T14:57:42;19.17;;;12.30;;
11054;SDS011;5580;50.106;8.702;2023-03-01T15:00:19;18.53;;;12.37;;
11054;SDS011;5580;50.106;8.702;2023-03-01T15:02:53;19.90;;;12.23;;
11054;SDS011;5580;50.106;8.702;2023-03-01T15:05:30;19.93;;;13.10;;
11054;SDS011;5580;50.106;8.702;2023-03-01T15:07:58;22.27;;;12.80;;
11054;SDS011;5580;50.106;8.702;2023-03-01T15:10:33;20.80;;;12.17;;
11054;SDS011;5580;50.106;8.702;2023-03-01T15:13:10;22.80;;;11.90;;
11054;SDS011;5580;50.106;8.702;2023-03-01T15:15:46;20.73;;;12.13;;
11054;SDS011;5580;50.106;8.702;2023-03-01T15:20:42;18.00;;;11.80;;
11054;SDS011;5580;50.106;8.702;2023-03-01T15:23:19;18.73;;;12.03;;
11054;SDS011;5580;50.106;8.702;2023-03-01T15:25:46;20.70;;;12.27;;
11054;SDS011;5580;50.106;8.702;2023-03-01T15:28:16;20.67;;;12.00;;
11054;SDS011;5580;50.106;8.702;2023-03-01T15:30:45;18.93;;;12.03;;
11054;SDS011;5580;50.106;8.702;2023-03-01T15:33:18;20.83;;;11.97;;
11054;SDS011;5580;50.106;8.702;2023-03-01T15:35:54;18.83;;;11.87;;
11054;SDS011;5580;50.106;8.702;2023-03-01T15:40:49;18.20;;;11.07;;
11054;SDS011;5580;50.106;8.702;2023-03-01T15:46:31;18.80;;;11.03;;
11054;SDS011;5580;50.106;8.702;2023-03-01T15:48:59;19.03;;;10.97;;
11054;SDS011;5580;50.106;8.702;2023-03-01T15:51:32;17.87;;;11.57;;
11054;SDS011;5580;50.106;8.702;2023-03-01T15:54:00;17.37;;;11.13;;
11054;SDS011;5580;50.106;8.702;2023-03-01T15:56:29;19.00;;;11.17;;
11054;SDS011;5580;50.106;8.702;2023-03-01T15:58:59;19.60;;;11.40;;
11054;SDS011;5580;50.106;8.702;2023-03-01T16:01:27;17.90;;;10.90;;
11054;SDS011;5580;50.106;8.702;2023-03-01T16:03:53;17.63;;;11.03;;
11054;SDS011;5580;50.106;8.702;2023-03-01T16:06:19;18.40;;;11.50;;
11054;SDS011;5580;50.106;8.702;2023-03-01T16:08:44;18.67;;;11.67;;
11054;SDS011;5580;50.106;8.702;2023-03-01T16:11:14;18.20;;;11.30;;
11054;SDS011;5580;50.106;8.702;2023-03-01T16:13:43;18.97;;;11.20;;
11054;SDS011;5580;50.106;8.702;2023-03-01T16:16:10;19.73;;;12.27;;
11054;SDS011;5580;50.106;8.702;2023-03-01T16:18:38;18.30;;;11.10;;
11054;SDS011;5580;50.106;8.702;2023-03-01T16:21:04;20.37;;;12.30;;
11054;SDS011;5580;50.106;8.702;2023-03-01T16:23:30;26.27;;;12.70;;
11054;SDS011;5580;50.106;8.702;2023-03-01T16:25:58;18.13;;;12.43;;
11054;SDS011;5580;50.106;8.702;2023-03-01T16:28:25;19.67;;;11.43;;
11054;SDS011;5580;50.106;8.702;2023-03-01T16:30:51;18.43;;;11.93;;
11054;SDS011;5580;50.106;8.702;2023-03-01T16:33:16;20.37;;;12.33;;
11054;SDS011;5580;50.106;8.702;2023-03-01T16:35:42;20.80;;;12.23;;
11054;SDS011;5580;50.106;8.702;2023-03-01T16:38:08;18.63;;;11.63;;
11054;SDS011;5580;50.106;8.702;2023-03-01T16:40:35;19.97;;;12.23;;
11054;SDS011;5580;50.106;8.702;2023-03-01T16:43:00;21.47;;;11.87;;